createdAt,value
2022-09-12T00:02:11.225Z,12.90
2022-09-12T00:04:38.497Z,12.80
2022-09-12T00:07:05.469Z,12.70
2022-09-12T00:09:32.573Z,12.70
2022-09-12T00:11:59.564Z,12.80
2022-09-12T00:14:26.775Z,12.80
2022-09-12T00:16:57.301Z,12.80
2022-09-12T00:19:24.571Z,12.70
2022-09-12T00:21:51.580Z,12.70
2022-09-12T00:24:18.572Z,12.60
2022-09-12T00:26:45.844Z,12.60
2022-09-12T00:29:20.368Z,12.70
2022-09-12T00:31:47.769Z,12.70
2022-09-12T00:34:15.053Z,12.50
2022-09-12T00:36:42.246Z,12.40
2022-09-12T00:39:16.738Z,12.40
2022-09-12T00:41:44.118Z,12.40
2022-09-12T00:44:51.592Z,12.30
2022-09-12T00:47:31.056Z,12.30
2022-09-12T00:50:11.775Z,12.30
2022-09-12T00:52:46.763Z,12.20
2022-09-12T00:55:26.423Z,12.20
2022-09-12T00:58:00.167Z,12.30
2022-09-12T01:00:28.266Z,12.30
2022-09-12T01:03:17.464Z,12.20
2022-09-12T01:05:53.510Z,12.30
2022-09-12T01:08:21.243Z,12.20
2022-09-12T01:10:49.080Z,12.20
2022-09-12T01:13:17.028Z,12.20
2022-09-12T01:15:44.123Z,12.20
2022-09-12T01:18:32.323Z,12.20
2022-09-12T01:21:20.413Z,12.20
2022-09-12T01:24:24.339Z,12.20
2022-09-12T01:27:49.779Z,12.10
2022-09-12T01:30:56.017Z,12.00
2022-09-12T01:33:53.221Z,11.90
2022-09-12T01:36:57.654Z,11.80
2022-09-12T01:40:00.595Z,11.70
2022-09-12T01:42:53.001Z,11.80
2022-09-12T01:45:28.405Z,11.80
2022-09-12T01:48:24.695Z,11.80
2022-09-12T01:51:18.369Z,11.90
2022-09-12T01:53:55.862Z,11.80
2022-09-12T01:56:29.833Z,11.80
2022-09-12T02:02:48.610Z,11.80
2022-09-12T02:05:29.911Z,11.80
2022-09-12T02:08:27.059Z,11.70
2022-09-12T02:10:59.384Z,11.80
2022-09-12T02:13:41.565Z,11.80
2022-09-12T02:16:12.587Z,11.80
2022-09-12T02:18:47.168Z,11.80
2022-09-12T02:21:14.364Z,11.80
2022-09-12T02:23:48.256Z,11.70
2022-09-12T02:26:26.104Z,11.70
2022-09-12T02:28:53.245Z,11.60
2022-09-12T02:31:45.759Z,11.60
2022-09-12T02:34:39.955Z,11.60
2022-09-12T02:37:33.772Z,11.50
2022-09-12T02:40:01.401Z,11.50
2022-09-12T02:42:28.441Z,11.60
2022-09-12T02:44:57.084Z,11.50
2022-09-12T02:47:32.156Z,11.50
2022-09-12T02:49:59.951Z,11.50
2022-09-12T02:52:28.975Z,11.50
2022-09-12T02:54:57.436Z,11.40
2022-09-12T02:57:25.019Z,11.40
2022-09-12T02:59:57.002Z,11.40
2022-09-12T03:03:11.600Z,11.40
2022-09-12T03:05:47.333Z,11.40
2022-09-12T03:08:47.114Z,11.40
2022-09-12T03:11:51.448Z,11.40
2022-09-12T03:14:36.775Z,11.30
2022-09-12T03:17:32.741Z,11.30
2022-09-12T03:35:47.106Z,11.10
2022-09-12T03:38:14.797Z,11.10
2022-09-12T03:46:04.802Z,11.00
2022-09-12T03:48:34.700Z,11.00
2022-09-12T03:51:06.865Z,11.00
2022-09-12T03:53:34.320Z,11.00
2022-09-12T03:56:06.238Z,11.00
2022-09-12T03:58:34.022Z,11.00
2022-09-12T04:01:01.357Z,11.00
2022-09-12T04:03:28.383Z,11.00
2022-09-12T04:05:58.060Z,11.00
2022-09-12T04:08:26.780Z,11.00
2022-09-12T04:10:53.834Z,11.00
2022-09-12T04:13:20.881Z,11.00
2022-09-12T04:15:57.378Z,11.10
2022-09-12T04:18:24.494Z,11.00
2022-09-12T04:20:51.657Z,11.00
2022-09-12T04:23:18.786Z,11.30
2022-09-12T04:25:53.389Z,11.20
2022-09-12T04:28:20.421Z,10.90
2022-09-12T04:30:47.416Z,10.90
2022-09-12T04:33:14.900Z,10.90
2022-09-12T04:35:42.990Z,10.90
2022-09-12T04:38:10.018Z,11.00
2022-09-12T04:40:37.232Z,11.00
2022-09-12T04:43:04.801Z,10.90
2022-09-12T04:45:31.931Z,10.90
2022-09-12T04:47:59.228Z,10.90
2022-09-12T04:50:26.359Z,10.90
2022-09-12T04:52:54.428Z,10.80
2022-09-12T04:55:22.405Z,10.80
2022-09-12T04:57:49.445Z,10.80
2022-09-12T05:00:16.723Z,10.90
2022-09-12T05:02:44.101Z,10.80
2022-09-12T05:05:11.603Z,10.80
2022-09-12T05:07:38.579Z,11.00
2022-09-12T05:10:06.253Z,11.00
2022-09-12T05:12:33.253Z,11.00
2022-09-12T05:15:00.282Z,10.90
2022-09-12T05:17:29.693Z,10.90
2022-09-12T05:19:56.688Z,10.90
2022-09-12T05:22:23.939Z,10.90
2022-09-12T05:24:50.958Z,10.90
2022-09-12T05:27:18.139Z,11.00
2022-09-12T05:29:45.236Z,10.90
2022-09-12T05:32:12.662Z,10.80
2022-09-12T05:34:40.595Z,10.80
2022-09-12T05:37:07.902Z,10.90
2022-09-12T05:39:34.970Z,11.10
2022-09-12T05:42:02.539Z,11.10
2022-09-12T05:44:29.557Z,11.20
2022-09-12T05:46:56.671Z,11.30
2022-09-12T05:49:23.747Z,11.30
2022-09-12T05:51:51.715Z,11.30
2022-09-12T05:54:20.874Z,11.30
2022-09-12T05:56:48.957Z,11.40
2022-09-12T05:59:21.316Z,11.40
2022-09-12T06:01:49.070Z,11.50
2022-09-12T06:04:16.616Z,11.60
2022-09-12T06:06:45.621Z,11.70
2022-09-12T06:09:15.105Z,11.80
2022-09-12T06:11:42.953Z,11.80
2022-09-12T06:14:14.487Z,12.00
2022-09-12T06:16:41.719Z,11.90
2022-09-12T06:19:15.472Z,12.00
2022-09-12T06:21:42.583Z,12.00
2022-09-12T06:24:10.079Z,12.20
2022-09-12T06:26:37.130Z,12.40
2022-09-12T06:29:05.003Z,12.50
2022-09-12T06:31:36.975Z,12.70
2022-09-12T06:34:07.326Z,12.80
2022-09-12T06:36:46.157Z,12.90
2022-09-12T06:39:23.289Z,13.00
2022-09-12T06:41:51.783Z,13.20
2022-09-12T06:44:22.544Z,13.10
2022-09-12T06:46:50.131Z,13.00
2022-09-12T06:49:17.917Z,13.10
2022-09-12T06:51:45.078Z,13.20
2022-09-12T06:54:17.223Z,13.20
2022-09-12T06:56:44.988Z,13.30
2022-09-12T06:59:12.530Z,13.40
2022-09-12T07:01:41.220Z,13.50
2022-09-12T07:04:08.595Z,13.50
2022-09-12T07:06:41.000Z,13.60
2022-09-12T07:09:10.616Z,13.80
2022-09-12T07:11:39.603Z,13.90
2022-09-12T07:14:08.264Z,13.90
2022-09-12T07:16:36.793Z,13.90
2022-09-12T07:19:05.726Z,14.10
2022-09-12T07:21:33.066Z,14.10
2022-09-12T07:24:00.210Z,14.00
2022-09-12T07:26:29.122Z,14.20
2022-09-12T07:29:08.231Z,14.30
2022-09-12T07:31:45.295Z,14.40
2022-09-12T07:34:12.388Z,14.40
2022-09-12T07:36:39.686Z,14.40
2022-09-12T07:39:06.727Z,14.40
2022-09-12T07:41:34.104Z,14.60
2022-09-12T07:44:02.952Z,14.70
2022-09-12T07:46:31.468Z,14.60
2022-09-12T07:49:00.236Z,14.90
2022-09-12T07:51:29.234Z,14.70
2022-09-12T07:53:56.784Z,14.80
2022-09-12T07:56:29.459Z,15.10
2022-09-12T07:58:57.913Z,15.10
2022-09-12T08:01:24.992Z,15.30
2022-09-12T08:03:58.069Z,15.40
2022-09-12T08:06:27.122Z,15.60
2022-09-12T08:08:58.322Z,15.90
2022-09-12T08:11:28.311Z,15.80
2022-09-12T08:13:57.708Z,15.60
2022-09-12T08:16:27.867Z,15.70
2022-09-12T08:18:55.448Z,15.80
2022-09-12T08:21:24.830Z,16.10
2022-09-12T08:23:57.165Z,16.20
2022-09-12T08:26:24.869Z,16.50
2022-09-12T08:28:53.243Z,16.60
2022-09-12T08:31:22.040Z,16.70
2022-09-12T08:33:49.249Z,16.90
2022-09-12T08:36:21.467Z,17.00
2022-09-12T08:38:50.926Z,17.10
2022-09-12T08:41:51.814Z,17.10
2022-09-12T08:45:11.093Z,16.90
2022-09-12T08:47:42.447Z,17.50
2022-09-12T08:50:20.828Z,17.50
2022-09-12T08:52:58.972Z,17.60
2022-09-12T08:55:51.456Z,18.00
2022-09-12T08:58:21.241Z,17.70
2022-09-12T09:01:31.533Z,17.90
2022-09-12T09:04:33.269Z,18.00
2022-09-12T09:07:58.353Z,18.60
2022-09-12T09:10:59.422Z,18.60
2022-09-12T09:14:04.491Z,18.70
2022-09-12T09:16:38.556Z,19.10
2022-09-12T09:19:21.710Z,19.70
2022-09-12T09:22:07.571Z,19.60
2022-09-12T09:24:43.016Z,19.80
2022-09-12T09:27:39.980Z,19.70
2022-09-12T09:30:19.597Z,19.80
2022-09-12T09:32:51.289Z,19.50
2022-09-12T09:35:31.211Z,19.20
2022-09-12T09:38:22.248Z,19.50
2022-09-12T09:41:32.953Z,19.90
2022-09-12T09:44:00.913Z,19.80
2022-09-12T09:46:28.249Z,19.90
2022-09-12T09:48:58.705Z,20.80
2022-09-12T09:51:34.495Z,20.80
2022-09-12T09:54:18.829Z,21.10
2022-09-12T09:56:46.089Z,20.50
2022-09-12T09:59:25.345Z,20.40
2022-09-12T10:01:57.747Z,21.20
2022-09-12T10:04:31.434Z,21.60
2022-09-12T10:07:01.007Z,21.10
2022-09-12T10:09:36.279Z,21.80
2022-09-12T10:12:28.719Z,21.00
2022-09-12T10:15:03.974Z,21.20
2022-09-12T10:17:43.885Z,22.10
2022-09-12T10:20:42.566Z,22.10
2022-09-12T10:23:41.188Z,22.10
2022-09-12T10:26:16.786Z,21.70
2022-09-12T10:28:49.594Z,22.90
2022-09-12T10:31:32.548Z,22.90
2022-09-12T10:34:01.043Z,22.40
2022-09-12T10:36:38.569Z,21.60
2022-09-12T10:39:06.343Z,21.80
2022-09-12T10:41:41.692Z,22.30
2022-09-12T10:44:33.595Z,22.80
2022-09-12T10:47:19.595Z,22.70
2022-09-12T10:49:46.858Z,23.20
2022-09-12T10:52:25.371Z,22.00
2022-09-12T10:54:52.906Z,23.00
2022-09-12T10:57:58.372Z,23.40
2022-09-12T11:00:30.398Z,24.20
2022-09-12T11:03:16.406Z,24.10
2022-09-12T11:06:01.823Z,24.40
2022-09-12T11:08:54.228Z,23.00
2022-09-12T11:11:52.965Z,22.90
2022-09-12T11:14:34.975Z,24.50
2022-09-12T11:17:48.154Z,25.50
2022-09-12T11:21:07.617Z,26.30
2022-09-12T11:24:12.685Z,25.80
2022-09-12T11:27:21.148Z,25.30
2022-09-12T11:29:59.690Z,25.00
2022-09-12T11:33:23.586Z,23.80
2022-09-12T11:35:55.421Z,24.40
2022-09-12T11:38:50.269Z,26.00
2022-09-12T11:41:34.406Z,25.60
2022-09-12T11:44:24.686Z,25.90
2022-09-12T11:46:52.342Z,25.20
2022-09-12T11:49:38.014Z,25.60
2022-09-12T11:52:15.995Z,25.80
2022-09-12T11:55:03.973Z,26.70
2022-09-12T11:58:00.221Z,26.60
2022-09-12T12:00:48.203Z,27.60
2022-09-12T12:03:22.775Z,27.00
2022-09-12T12:06:22.951Z,26.80
2022-09-12T12:08:53.670Z,26.20
2022-09-12T12:11:34.197Z,27.70
2022-09-12T12:14:08.784Z,28.70
2022-09-12T12:16:39.212Z,28.20
2022-09-12T12:19:31.782Z,28.10
2022-09-12T12:22:07.699Z,28.80
2022-09-12T12:24:35.386Z,28.90
2022-09-12T12:27:04.938Z,29.40
2022-09-12T12:29:44.311Z,28.60
2022-09-12T12:32:22.343Z,29.10
2022-09-12T12:34:49.714Z,28.80
2022-09-12T12:37:58.291Z,29.40
2022-09-12T12:40:28.911Z,29.80
2022-09-12T12:43:04.724Z,26.60
2022-09-12T12:46:12.578Z,26.70
2022-09-12T12:49:17.385Z,27.90
2022-09-12T12:52:01.413Z,30.00
2022-09-12T12:54:57.044Z,29.40
2022-09-12T12:57:48.648Z,29.40
2022-09-12T13:00:41.951Z,29.70
2022-09-12T13:03:30.422Z,29.40
2022-09-12T13:06:03.016Z,29.20
2022-09-12T13:08:36.447Z,29.10
2022-09-12T13:11:27.882Z,27.60
2022-09-12T13:14:01.684Z,29.50
2022-09-12T13:16:40.936Z,29.90
2022-09-12T13:19:18.529Z,31.10
2022-09-12T13:22:01.502Z,29.60
2022-09-12T13:24:28.713Z,29.10
2022-09-12T13:26:57.788Z,29.40
2022-09-12T13:29:27.220Z,29.30
2022-09-12T13:31:59.306Z,27.80
2022-09-12T13:34:43.085Z,27.50
2022-09-12T13:37:40.381Z,29.60
2022-09-12T13:40:58.661Z,29.40
2022-09-12T13:43:41.400Z,30.70
2022-09-12T13:46:13.554Z,29.00
2022-09-12T13:48:41.335Z,31.80
2022-09-12T13:51:19.281Z,32.90
2022-09-12T13:53:48.121Z,32.90
2022-09-12T13:56:20.178Z,30.90
2022-09-12T13:58:58.741Z,31.00
2022-09-12T14:01:42.237Z,32.20
2022-09-12T14:04:42.391Z,33.80
2022-09-12T14:07:20.443Z,34.60
2022-09-12T14:09:55.665Z,35.80
2022-09-12T14:12:35.090Z,36.60
2022-09-12T14:15:02.259Z,35.30
2022-09-12T14:17:39.808Z,35.00
2022-09-12T14:20:15.157Z,35.80
2022-09-12T14:22:42.660Z,35.40
2022-09-12T14:25:39.149Z,36.20
2022-09-12T14:28:06.543Z,35.30
2022-09-12T14:30:39.098Z,35.20
2022-09-12T14:33:34.007Z,36.00
2022-09-12T14:36:25.239Z,35.30
2022-09-12T14:39:04.676Z,35.10
2022-09-12T14:41:38.631Z,35.90
2022-09-12T14:44:16.701Z,37.50
2022-09-12T14:46:44.855Z,38.70
2022-09-12T14:49:33.516Z,38.20
2022-09-12T14:52:07.257Z,36.20
2022-09-12T14:54:38.901Z,36.50
2022-09-12T14:57:40.706Z,37.20
2022-09-12T15:00:21.202Z,37.10
2022-09-12T15:02:49.925Z,36.10
2022-09-12T15:05:28.076Z,35.60
2022-09-12T15:07:58.330Z,34.80
2022-09-12T15:10:35.680Z,36.50
2022-09-12T15:13:23.171Z,37.60
2022-09-12T15:15:55.939Z,38.60
2022-09-12T15:18:25.910Z,38.10
2022-09-12T15:20:56.368Z,38.50
2022-09-12T15:23:40.395Z,38.20
2022-09-12T15:26:07.894Z,37.80
2022-09-12T15:28:34.985Z,37.30
2022-09-12T15:31:28.762Z,36.10
2022-09-12T15:33:59.610Z,33.90
2022-09-12T15:36:28.957Z,32.70
2022-09-12T15:38:56.275Z,32.20
2022-09-12T15:41:32.427Z,31.30
2022-09-12T15:43:59.618Z,33.10
2022-09-12T15:46:26.724Z,33.90
2022-09-12T15:48:53.901Z,34.00
2022-09-12T15:51:22.280Z,33.70
2022-09-12T15:53:50.757Z,33.50
2022-09-12T15:56:19.955Z,34.00
2022-09-12T15:58:58.322Z,33.70
2022-09-12T16:01:27.200Z,34.80
2022-09-12T16:03:54.335Z,35.00
2022-09-12T16:06:22.297Z,33.50
2022-09-12T16:08:49.569Z,34.60
2022-09-12T16:11:22.910Z,34.30
2022-09-12T16:13:51.769Z,34.30
2022-09-12T16:16:18.848Z,33.60
2022-09-12T16:18:46.113Z,34.00
2022-09-12T16:21:15.502Z,34.00
2022-09-12T16:23:44.229Z,33.50
2022-09-12T16:26:11.545Z,33.70
2022-09-12T16:28:39.004Z,34.60
2022-09-12T16:31:08.159Z,34.40
2022-09-12T16:33:37.349Z,33.80
2022-09-12T16:36:07.034Z,33.50
2022-09-12T16:38:35.895Z,33.40
2022-09-12T16:41:07.211Z,32.60
2022-09-12T16:43:35.993Z,32.20
2022-09-12T16:46:11.635Z,32.60
2022-09-12T16:48:51.154Z,32.30
2022-09-12T16:51:24.516Z,31.80
2022-09-12T16:53:51.844Z,31.60
2022-09-12T16:56:18.925Z,31.40
2022-09-12T16:58:46.568Z,30.60
2022-09-12T17:01:19.680Z,29.70
2022-09-12T17:03:47.324Z,28.90
2022-09-12T17:06:16.681Z,27.70
2022-09-12T17:08:46.576Z,27.70
2022-09-12T17:11:20.386Z,27.70
2022-09-12T17:14:04.366Z,27.10
2022-09-12T17:16:38.439Z,26.10
2022-09-12T17:19:06.662Z,26.10
2022-09-12T17:21:34.260Z,26.30
2022-09-12T17:24:01.711Z,25.40
2022-09-12T17:26:28.704Z,24.20
2022-09-12T17:28:55.770Z,23.50
2022-09-12T17:31:22.854Z,23.00
2022-09-12T17:33:50.114Z,22.50
2022-09-12T17:36:18.124Z,22.30
2022-09-12T17:38:46.482Z,22.20
2022-09-12T17:41:17.628Z,21.90
2022-09-12T17:43:54.470Z,21.70
2022-09-12T17:46:23.182Z,21.40
2022-09-12T17:48:57.507Z,21.50
2022-09-12T17:51:26.316Z,21.10
2022-09-12T17:54:17.781Z,21.00
2022-09-12T17:56:47.383Z,21.20
2022-09-12T17:59:18.224Z,21.20
2022-09-12T18:02:04.506Z,21.10
2022-09-12T18:04:31.726Z,20.90
2022-09-12T18:07:00.445Z,20.50
2022-09-12T18:09:28.383Z,20.50
2022-09-12T18:11:55.814Z,20.40
2022-09-12T18:14:23.645Z,20.50
2022-09-12T18:16:51.171Z,20.50
2022-09-12T18:19:18.315Z,20.30
2022-09-12T18:21:46.017Z,20.00
2022-09-12T18:24:13.499Z,19.80
2022-09-12T18:26:40.761Z,19.90
2022-09-12T18:29:07.985Z,19.80
2022-09-12T18:31:35.848Z,19.70
2022-09-12T18:34:02.972Z,19.70
2022-09-12T18:36:30.778Z,19.60
2022-09-12T18:38:58.748Z,19.60
2022-09-12T18:41:26.651Z,19.60
2022-09-12T18:43:58.317Z,19.50
2022-09-12T18:46:26.956Z,19.40
2022-09-12T18:48:57.756Z,19.30
2022-09-12T18:51:31.504Z,19.20
2022-09-12T18:54:04.219Z,19.30
2022-09-12T18:56:33.463Z,19.30
2022-09-12T18:59:02.780Z,19.10
2022-09-12T19:01:35.304Z,19.10
2022-09-12T19:04:06.112Z,19.20
2022-09-12T19:06:36.008Z,19.00
2022-09-12T19:09:07.561Z,18.80
2022-09-12T19:11:37.129Z,18.70
2022-09-12T19:14:04.559Z,18.60
2022-09-12T19:16:32.126Z,18.40
2022-09-12T19:18:59.717Z,18.30
2022-09-12T19:21:29.159Z,18.30
2022-09-12T19:23:59.023Z,18.20
2022-09-12T19:26:26.533Z,18.20
2022-09-12T19:28:54.813Z,18.30
2022-09-12T19:31:23.387Z,18.40
2022-09-12T19:33:52.188Z,18.30
2022-09-12T19:36:43.965Z,18.20
2022-09-12T19:39:09.234Z,18.10
2022-09-12T19:41:36.737Z,17.90
2022-09-12T19:44:05.155Z,17.80
2022-09-12T19:46:32.341Z,17.80
2022-09-12T19:48:59.515Z,17.70
2022-09-12T19:51:26.567Z,17.70
2022-09-12T19:53:54.065Z,17.70
2022-09-12T19:56:21.960Z,17.60
2022-09-12T19:58:55.797Z,17.50
2022-09-12T20:01:28.347Z,17.60
2022-09-12T20:03:57.414Z,17.50
2022-09-12T20:06:25.294Z,17.40
2022-09-12T20:08:52.399Z,17.20
2022-09-12T20:11:22.134Z,17.10
2022-09-12T20:13:49.629Z,17.20
2022-09-12T20:16:22.919Z,17.30
2022-09-12T20:18:59.363Z,17.20
2022-09-12T20:21:32.066Z,17.20
2022-09-12T20:24:05.505Z,17.10
2022-09-12T20:26:32.670Z,17.10
2022-09-12T20:29:00.384Z,17.00
2022-09-12T20:31:27.598Z,16.90
2022-09-12T20:33:55.181Z,16.80
2022-09-12T20:36:23.078Z,16.80
2022-09-12T20:38:52.993Z,16.80
2022-09-12T20:41:21.137Z,16.80
2022-09-12T20:43:52.358Z,16.70
2022-09-12T20:46:22.227Z,16.70
2022-09-12T20:48:50.423Z,16.50
2022-09-12T20:51:18.266Z,16.40
2022-09-12T20:53:45.581Z,16.40
2022-09-12T20:56:12.601Z,16.50
2022-09-12T20:58:43.803Z,16.30
2022-09-12T21:01:12.603Z,16.40
2022-09-12T21:03:43.228Z,16.40
2022-09-12T21:06:12.677Z,16.30
2022-09-12T21:08:40.304Z,16.20
2022-09-12T21:11:07.990Z,16.20
2022-09-12T21:13:35.570Z,16.00
2022-09-12T21:16:08.139Z,15.90
2022-09-12T21:18:36.118Z,15.90
2022-09-12T21:21:04.650Z,16.00
2022-09-12T21:23:32.302Z,16.00
2022-09-12T21:26:00.068Z,16.00
2022-09-12T21:28:27.461Z,15.90
2022-09-12T21:30:54.641Z,15.80
2022-09-12T21:33:22.376Z,15.80
2022-09-12T21:35:50.030Z,15.80
2022-09-12T21:38:18.197Z,15.90
2022-09-12T21:40:45.908Z,15.90
2022-09-12T21:43:13.381Z,15.80
2022-09-12T21:45:40.812Z,15.70
2022-09-12T21:48:08.249Z,15.80
2022-09-12T21:50:35.416Z,15.70
2022-09-12T21:53:02.454Z,15.60
2022-09-12T21:55:29.778Z,15.50
2022-09-12T21:57:56.879Z,15.50
2022-09-12T22:00:24.218Z,15.40
2022-09-12T22:02:51.228Z,15.30
2022-09-12T22:05:19.663Z,15.30
2022-09-12T22:07:47.333Z,15.30
2022-09-12T22:10:15.285Z,15.30
2022-09-12T22:12:46.162Z,15.30
2022-09-12T22:15:38.776Z,15.30
2022-09-12T22:18:01.526Z,15.20
2022-09-12T22:20:28.711Z,15.20
2022-09-12T22:23:14.188Z,15.20
2022-09-12T22:25:41.306Z,15.20
2022-09-12T22:28:08.379Z,15.20
2022-09-12T22:30:35.546Z,15.20
2022-09-12T22:33:02.657Z,15.20
2022-09-12T22:35:29.622Z,15.10
2022-09-12T22:37:56.675Z,15.10
2022-09-12T22:40:23.895Z,15.00
2022-09-12T22:42:54.409Z,14.90
2022-09-12T22:45:21.400Z,14.90
2022-09-12T22:47:48.416Z,14.90
2022-09-12T22:50:15.773Z,14.90
2022-09-12T22:52:42.818Z,14.80
2022-09-12T22:55:10.559Z,14.80
2022-09-12T22:57:37.813Z,14.70
2022-09-12T23:00:08.678Z,14.70
2022-09-12T23:02:35.708Z,14.70
2022-09-12T23:05:03.162Z,14.70
2022-09-12T23:07:30.116Z,14.70
2022-09-12T23:09:57.152Z,14.80
2022-09-12T23:12:24.182Z,14.80
2022-09-12T23:14:51.174Z,14.60
2022-09-12T23:17:18.456Z,14.60
2022-09-12T23:19:45.483Z,14.50
2022-09-12T23:22:12.474Z,14.50
2022-09-12T23:24:39.624Z,14.50
2022-09-12T23:27:06.613Z,14.50
2022-09-12T23:29:35.520Z,14.50
2022-09-12T23:32:03.628Z,14.50
2022-09-12T23:34:31.007Z,14.50
2022-09-12T23:36:58.017Z,14.40
2022-09-12T23:39:25.135Z,14.40
2022-09-12T23:41:52.398Z,14.40
2022-09-12T23:44:19.391Z,14.40
2022-09-12T23:46:46.541Z,14.40
2022-09-12T23:49:14.171Z,14.40
2022-09-12T23:51:41.149Z,14.50
2022-09-12T23:54:08.837Z,14.40
2022-09-12T23:56:35.814Z,14.30
2022-09-12T23:59:02.885Z,14.40
